createdAt,value
2023-02-16T00:01:22.607Z,10.13
2023-02-16T00:03:53.715Z,14.50
2023-02-16T00:06:24.083Z,12.37
2023-02-16T00:08:58.395Z,12.03
2023-02-16T00:11:46.120Z,9.70
2023-02-16T00:14:17.205Z,10.73
2023-02-16T00:16:47.157Z,14.73
2023-02-16T00:19:22.902Z,12.93
2023-02-16T00:21:54.781Z,11.53
2023-02-16T00:24:28.543Z,12.50
2023-02-16T00:26:59.321Z,15.63
2023-02-16T00:29:32.402Z,12.30
2023-02-16T00:32:04.634Z,14.23
2023-02-16T00:34:36.393Z,12.90
2023-02-16T00:37:07.958Z,16.97
2023-02-16T00:39:42.004Z,13.33
2023-02-16T00:42:19.977Z,14.83
2023-02-16T00:44:51.923Z,13.00
2023-02-16T00:47:24.327Z,13.93
2023-02-16T00:49:56.942Z,14.13
2023-02-16T00:52:35.879Z,14.90
2023-02-16T00:55:11.620Z,16.57
2023-02-16T00:57:45.181Z,14.50
2023-02-16T01:00:20.766Z,14.20
2023-02-16T01:02:53.402Z,13.70
2023-02-16T01:05:23.778Z,16.00
2023-02-16T01:08:06.821Z,13.70
2023-02-16T01:10:53.250Z,12.90
2023-02-16T01:13:23.438Z,13.30
2023-02-16T01:15:53.262Z,11.27
2023-02-16T01:18:24.163Z,12.53
2023-02-16T01:20:54.692Z,12.50
2023-02-16T01:23:24.483Z,11.73
2023-02-16T01:25:57.226Z,12.80
2023-02-16T01:28:28.263Z,12.80
2023-02-16T01:30:58.494Z,14.00
2023-02-16T01:33:29.095Z,14.63
2023-02-16T01:36:01.074Z,15.43
2023-02-16T01:38:31.886Z,13.47
2023-02-16T01:41:22.800Z,12.40
2023-02-16T01:43:55.749Z,12.77
2023-02-16T01:46:34.333Z,14.10
2023-02-16T01:49:04.459Z,16.10
2023-02-16T01:51:40.200Z,13.90
2023-02-16T01:54:16.388Z,12.87
2023-02-16T01:56:53.135Z,18.47
2023-02-16T01:59:32.277Z,11.83
2023-02-16T02:02:03.906Z,14.07
2023-02-16T02:04:55.600Z,13.20
2023-02-16T02:07:30.573Z,13.67
2023-02-16T02:10:06.174Z,18.97
2023-02-16T02:12:48.841Z,13.73
2023-02-16T02:15:22.577Z,14.90
2023-02-16T02:17:52.674Z,16.80
2023-02-16T02:20:49.155Z,14.87
2023-02-16T02:23:36.523Z,15.00
2023-02-16T02:26:42.438Z,13.50
2023-02-16T02:29:39.012Z,14.10
2023-02-16T02:32:18.815Z,15.43
2023-02-16T02:35:03.263Z,16.30
2023-02-16T02:37:47.389Z,13.77
2023-02-16T02:40:23.616Z,17.03
2023-02-16T02:43:07.643Z,15.30
2023-02-16T02:45:41.646Z,15.83
2023-02-16T02:48:11.916Z,13.50
2023-02-16T02:51:04.716Z,16.20
2023-02-16T02:53:37.653Z,14.63
2023-02-16T02:56:22.269Z,14.30
2023-02-16T02:59:12.594Z,18.33
2023-02-16T03:01:46.085Z,15.87
2023-02-16T03:04:21.821Z,14.63
2023-02-16T03:06:55.421Z,14.30
2023-02-16T03:09:27.022Z,16.37
2023-02-16T03:12:10.814Z,17.67
2023-02-16T03:14:47.545Z,13.27
2023-02-16T03:17:33.237Z,16.43
2023-02-16T03:20:18.343Z,15.97
2023-02-16T03:23:01.129Z,17.00
2023-02-16T03:25:47.467Z,12.70
2023-02-16T03:28:31.312Z,16.10
2023-02-16T03:31:06.311Z,15.47
2023-02-16T03:33:36.996Z,15.53
2023-02-16T03:36:08.387Z,14.13
2023-02-16T03:38:39.548Z,18.57
2023-02-16T03:41:09.851Z,20.07
2023-02-16T03:43:39.907Z,18.07
2023-02-16T03:46:12.857Z,19.70
2023-02-16T03:48:42.879Z,18.43
2023-02-16T03:51:12.774Z,21.90
2023-02-16T03:53:42.609Z,20.70
2023-02-16T03:56:13.639Z,22.63
2023-02-16T03:58:43.700Z,18.80
2023-02-16T04:01:16.291Z,17.90
2023-02-16T04:03:46.299Z,20.47
2023-02-16T04:06:16.590Z,18.97
2023-02-16T04:08:46.463Z,18.60
2023-02-16T04:11:28.772Z,20.20
2023-02-16T04:14:01.582Z,21.43
2023-02-16T04:16:34.015Z,20.13
2023-02-16T04:19:03.787Z,16.30
2023-02-16T04:21:33.879Z,17.70
2023-02-16T04:24:05.809Z,23.33
2023-02-16T04:26:36.015Z,19.17
2023-02-16T04:29:05.772Z,24.33
2023-02-16T04:31:38.522Z,17.03
2023-02-16T04:34:08.596Z,22.20
2023-02-16T04:36:38.435Z,26.57
2023-02-16T04:39:08.227Z,21.40
2023-02-16T04:41:38.344Z,20.67
2023-02-16T04:44:08.524Z,24.83
2023-02-16T04:46:42.712Z,21.53
2023-02-16T04:49:12.567Z,19.77
2023-02-16T04:51:42.653Z,17.93
2023-02-16T04:54:12.499Z,26.77
2023-02-16T04:56:42.597Z,18.60
2023-02-16T04:59:12.379Z,23.17
2023-02-16T05:01:46.126Z,23.37
2023-02-16T05:04:16.558Z,19.63
2023-02-16T05:06:46.690Z,20.43
2023-02-16T05:09:16.584Z,20.20
2023-02-16T05:11:59.055Z,24.00
2023-02-16T05:14:46.371Z,24.57
2023-02-16T05:17:21.207Z,20.73
2023-02-16T05:19:53.734Z,20.23
2023-02-16T05:22:23.693Z,20.93
2023-02-16T05:24:53.724Z,22.23
2023-02-16T05:27:26.586Z,23.77
2023-02-16T05:29:56.629Z,24.57
2023-02-16T05:32:29.735Z,17.57
2023-02-16T05:34:59.536Z,19.87
2023-02-16T05:37:29.348Z,21.33
2023-02-16T05:39:59.668Z,20.70
2023-02-16T05:42:29.520Z,24.23
2023-02-16T05:44:59.741Z,23.40
2023-02-16T05:47:32.129Z,20.17
2023-02-16T05:50:02.008Z,18.90
2023-02-16T05:52:31.809Z,19.83
2023-02-16T05:55:01.826Z,23.20
2023-02-16T05:57:34.895Z,21.93
2023-02-16T06:00:05.327Z,23.10
2023-02-16T06:02:38.371Z,22.60
2023-02-16T06:05:08.980Z,23.17
2023-02-16T06:07:38.785Z,26.10
2023-02-16T06:10:10.110Z,24.97
2023-02-16T06:12:40.077Z,24.90
2023-02-16T06:15:10.614Z,25.60
2023-02-16T06:17:47.072Z,27.57
2023-02-16T06:20:16.971Z,22.40
2023-02-16T06:22:46.762Z,20.50
2023-02-16T06:25:18.737Z,19.37
2023-02-16T06:27:50.123Z,23.00
2023-02-16T06:30:21.822Z,21.60
2023-02-16T06:32:55.430Z,25.43
2023-02-16T06:35:25.528Z,20.80
2023-02-16T06:37:55.831Z,27.40
2023-02-16T06:40:28.937Z,27.40
2023-02-16T06:43:00.251Z,25.67
2023-02-16T06:45:31.100Z,25.33
2023-02-16T06:48:04.134Z,28.13
2023-02-16T06:50:34.400Z,28.50
2023-02-16T06:53:04.233Z,24.83
2023-02-16T06:55:36.882Z,28.13
2023-02-16T06:58:07.781Z,27.87
2023-02-16T07:00:38.281Z,24.80
2023-02-16T07:03:10.999Z,28.50
2023-02-16T07:05:41.760Z,29.53
2023-02-16T07:08:11.839Z,26.00
2023-02-16T07:10:49.979Z,29.50
2023-02-16T07:13:20.712Z,21.70
2023-02-16T07:15:51.599Z,29.37
2023-02-16T07:18:24.322Z,27.87
2023-02-16T07:20:54.488Z,27.00
2023-02-16T07:23:24.969Z,30.60
2023-02-16T07:25:55.446Z,29.50
2023-02-16T07:28:25.660Z,27.00
2023-02-16T07:30:56.352Z,28.77
2023-02-16T07:33:29.134Z,26.13
2023-02-16T07:35:59.257Z,28.23
2023-02-16T07:38:30.845Z,25.40
2023-02-16T07:41:01.862Z,30.17
2023-02-16T07:43:32.668Z,27.80
2023-02-16T07:46:03.154Z,26.77
2023-02-16T07:48:36.094Z,24.27
2023-02-16T07:51:07.910Z,24.00
2023-02-16T07:53:38.714Z,25.10
2023-02-16T07:56:09.422Z,25.47
2023-02-16T07:58:39.648Z,24.33
2023-02-16T08:01:14.788Z,28.30
2023-02-16T08:03:48.461Z,23.97
2023-02-16T08:06:19.367Z,24.53
2023-02-16T08:08:50.145Z,21.37
2023-02-16T08:11:24.052Z,21.00
2023-02-16T08:13:55.117Z,24.97
2023-02-16T08:16:28.168Z,24.70
2023-02-16T08:19:03.849Z,24.30
2023-02-16T08:21:37.183Z,25.03
2023-02-16T08:24:09.534Z,22.20
2023-02-16T08:26:42.127Z,22.83
2023-02-16T08:29:13.436Z,22.40
2023-02-16T08:31:44.652Z,19.90
2023-02-16T08:34:22.898Z,21.27
2023-02-16T08:36:57.061Z,22.07
2023-02-16T08:39:29.049Z,24.73
2023-02-16T08:42:00.727Z,20.90
2023-02-16T08:44:32.449Z,19.50
2023-02-16T08:47:04.607Z,20.80
2023-02-16T08:49:40.025Z,20.90
2023-02-16T08:52:12.770Z,25.33
2023-02-16T08:54:43.257Z,23.03
2023-02-16T08:57:13.892Z,20.50
2023-02-16T08:59:44.293Z,21.90
2023-02-16T09:02:18.404Z,21.50
2023-02-16T09:04:51.133Z,18.80
2023-02-16T09:07:22.363Z,21.30
2023-02-16T09:09:53.161Z,18.60
2023-02-16T09:12:23.428Z,20.97
2023-02-16T09:14:53.437Z,18.53
2023-02-16T09:17:23.922Z,20.53
2023-02-16T09:19:56.554Z,19.87
2023-02-16T09:22:27.204Z,22.40
2023-02-16T09:25:01.259Z,20.23
2023-02-16T09:27:31.847Z,20.63
2023-02-16T09:30:02.046Z,20.40
2023-02-16T09:32:32.410Z,18.60
2023-02-16T09:35:05.775Z,17.97
2023-02-16T09:37:36.333Z,20.63
2023-02-16T09:40:07.683Z,17.00
2023-02-16T09:42:55.755Z,18.60
2023-02-16T09:45:29.067Z,17.30
2023-02-16T09:48:01.561Z,18.77
2023-02-16T09:50:53.418Z,17.60
2023-02-16T09:53:31.828Z,19.40
2023-02-16T09:56:23.459Z,17.30
2023-02-16T09:58:59.959Z,15.73
2023-02-16T10:01:39.125Z,18.93
2023-02-16T10:04:30.180Z,15.60
2023-02-16T10:07:13.072Z,13.70
2023-02-16T10:09:47.379Z,17.63
2023-02-16T10:12:24.251Z,17.03
2023-02-16T10:14:57.090Z,16.97
2023-02-16T10:17:35.274Z,15.60
2023-02-16T10:20:14.152Z,17.40
2023-02-16T10:22:53.070Z,17.53
2023-02-16T10:25:29.177Z,17.13
2023-02-16T10:28:19.859Z,14.40
2023-02-16T10:30:56.904Z,15.17
2023-02-16T10:33:44.093Z,12.27
2023-02-16T10:36:21.711Z,16.40
2023-02-16T10:39:02.445Z,15.93
2023-02-16T10:41:37.761Z,12.97
2023-02-16T10:44:15.510Z,16.47
2023-02-16T10:46:49.485Z,16.33
2023-02-16T10:49:21.742Z,14.00
2023-02-16T10:51:54.827Z,15.47
2023-02-16T10:54:30.389Z,14.60
2023-02-16T10:57:04.270Z,14.33
2023-02-16T10:59:40.225Z,13.50
2023-02-16T11:02:22.252Z,12.80
2023-02-16T11:04:54.429Z,16.03
2023-02-16T11:07:26.992Z,14.77
2023-02-16T11:10:03.075Z,15.77
2023-02-16T11:12:37.016Z,15.87
2023-02-16T11:15:25.254Z,15.07
2023-02-16T11:17:58.250Z,19.23
2023-02-16T11:20:31.966Z,14.13
2023-02-16T11:23:24.894Z,14.00
2023-02-16T11:26:03.801Z,15.53
2023-02-16T11:28:37.067Z,16.03
2023-02-16T11:31:18.989Z,13.57
2023-02-16T11:34:01.337Z,14.57
2023-02-16T11:36:36.109Z,16.00
2023-02-16T11:39:11.796Z,16.63
2023-02-16T11:41:53.960Z,15.50
2023-02-16T11:44:31.816Z,13.13
2023-02-16T11:47:05.464Z,15.73
2023-02-16T11:49:39.289Z,14.23
2023-02-16T11:52:30.779Z,13.20
2023-02-16T11:55:05.029Z,15.10
2023-02-16T11:57:39.338Z,16.07
2023-02-16T12:00:19.393Z,17.33
2023-02-16T12:03:23.001Z,15.23
2023-02-16T12:06:07.053Z,15.67
2023-02-16T12:08:52.603Z,14.73
2023-02-16T12:11:33.261Z,13.80
2023-02-16T12:14:22.753Z,16.80
2023-02-16T12:17:01.909Z,14.07
2023-02-16T12:19:40.126Z,15.07
2023-02-16T12:22:27.345Z,15.53
2023-02-16T12:25:12.612Z,15.53
2023-02-16T12:27:48.586Z,17.07
2023-02-16T12:30:34.030Z,15.53
2023-02-16T12:33:21.410Z,15.97
2023-02-16T12:36:10.795Z,16.10
2023-02-16T12:38:51.398Z,15.40
2023-02-16T12:41:31.001Z,18.90
2023-02-16T12:44:06.508Z,17.30
2023-02-16T12:46:44.878Z,14.30
2023-02-16T12:49:19.417Z,13.87
2023-02-16T12:51:53.508Z,13.00
2023-02-16T12:54:28.026Z,16.00
2023-02-16T12:57:03.904Z,14.27
2023-02-16T12:59:42.805Z,15.33
2023-02-16T13:02:22.052Z,20.00
2023-02-16T13:04:59.412Z,13.67
2023-02-16T13:07:34.898Z,13.80
2023-02-16T13:10:10.688Z,15.93
2023-02-16T13:12:45.045Z,15.43
2023-02-16T13:15:18.788Z,13.33
2023-02-16T13:17:55.674Z,14.00
2023-02-16T13:20:27.773Z,12.90
2023-02-16T13:23:28.090Z,12.83
2023-02-16T13:26:18.440Z,15.57
2023-02-16T13:29:17.439Z,13.13
2023-02-16T13:32:00.725Z,15.70
2023-02-16T13:35:01.868Z,13.20
2023-02-16T13:37:49.260Z,13.83
2023-02-16T13:40:39.627Z,12.60
2023-02-16T13:43:22.997Z,14.00
2023-02-16T13:45:54.621Z,13.27
2023-02-16T13:48:28.452Z,13.10
2023-02-16T13:51:04.814Z,13.80
2023-02-16T13:53:40.317Z,13.87
2023-02-16T13:56:22.589Z,13.50
2023-02-16T13:58:54.165Z,13.83
2023-02-16T14:01:41.668Z,15.43
2023-02-16T14:04:17.125Z,14.50
2023-02-16T14:06:49.551Z,15.20
2023-02-16T14:09:39.173Z,13.73
2023-02-16T14:12:21.263Z,15.43
2023-02-16T14:15:07.677Z,13.40
2023-02-16T14:17:38.713Z,12.20
2023-02-16T14:20:28.324Z,13.87
2023-02-16T14:23:02.665Z,14.67
2023-02-16T14:25:40.286Z,14.23
2023-02-16T14:28:40.149Z,12.57
2023-02-16T14:31:18.467Z,14.13
2023-02-16T14:33:58.864Z,13.27
2023-02-16T14:36:29.272Z,14.37
2023-02-16T14:39:04.280Z,15.43
2023-02-16T14:41:36.936Z,14.23
2023-02-16T14:44:34.093Z,12.83
2023-02-16T14:47:14.868Z,13.50
2023-02-16T14:50:05.338Z,14.90
2023-02-16T14:53:20.650Z,12.40
2023-02-16T14:56:19.039Z,12.67
2023-02-16T14:58:57.445Z,14.17
2023-02-16T15:01:28.201Z,14.83
2023-02-16T15:04:04.899Z,13.90
2023-02-16T15:06:38.696Z,14.30
2023-02-16T15:09:17.977Z,14.50
2023-02-16T15:12:08.632Z,15.37
2023-02-16T15:14:45.377Z,13.27
2023-02-16T15:17:28.162Z,15.00
2023-02-16T15:20:00.476Z,13.23
2023-02-16T15:22:30.317Z,13.07
2023-02-16T15:25:03.368Z,16.73
2023-02-16T15:27:35.795Z,14.93
2023-02-16T15:30:09.615Z,13.33
2023-02-16T15:32:39.712Z,15.40
2023-02-16T15:35:15.695Z,15.27
2023-02-16T15:37:45.631Z,14.70
2023-02-16T15:40:25.494Z,14.67
2023-02-16T15:43:08.494Z,15.80
2023-02-16T15:45:41.185Z,15.30
2023-02-16T15:48:26.183Z,14.77
2023-02-16T15:51:00.543Z,15.20
2023-02-16T15:53:42.555Z,17.73
2023-02-16T15:56:31.576Z,18.40
2023-02-16T15:59:07.055Z,15.53
2023-02-16T16:01:38.789Z,15.87
2023-02-16T16:04:19.177Z,14.23
2023-02-16T16:06:51.210Z,14.33
2023-02-16T16:09:27.110Z,17.50
2023-02-16T16:11:59.236Z,14.43
2023-02-16T16:14:33.372Z,14.53
2023-02-16T16:17:03.703Z,16.80
2023-02-16T16:19:38.955Z,15.40
2023-02-16T16:22:33.065Z,14.73
2023-02-16T16:25:04.238Z,15.20
2023-02-16T16:27:37.433Z,17.10
2023-02-16T16:30:31.369Z,14.57
2023-02-16T16:33:06.353Z,16.37
2023-02-16T16:35:39.519Z,14.67
2023-02-16T16:38:23.364Z,16.27
2023-02-16T16:40:55.330Z,15.70
2023-02-16T16:43:32.225Z,17.80
2023-02-16T16:46:25.418Z,16.40
2023-02-16T16:49:03.539Z,13.27
2023-02-16T16:51:45.157Z,16.30
2023-02-16T16:54:16.586Z,20.87
2023-02-16T16:56:47.693Z,16.37
2023-02-16T16:59:20.258Z,15.93
2023-02-16T17:01:53.187Z,19.03
2023-02-16T17:04:27.454Z,19.90
2023-02-16T17:06:59.441Z,18.23
2023-02-16T17:09:29.433Z,16.80
2023-02-16T17:11:59.547Z,19.07
2023-02-16T17:14:29.480Z,17.87
2023-02-16T17:17:02.098Z,17.13
2023-02-16T17:19:32.736Z,19.60
2023-02-16T17:22:02.565Z,16.57
2023-02-16T17:24:32.578Z,19.10
2023-02-16T17:27:02.429Z,17.30
2023-02-16T17:29:32.283Z,18.33
2023-02-16T17:32:05.544Z,18.77
2023-02-16T17:34:35.497Z,21.10
2023-02-16T17:37:07.969Z,18.83
2023-02-16T17:39:38.934Z,19.20
2023-02-16T17:42:12.828Z,16.47
2023-02-16T17:44:43.097Z,23.63
2023-02-16T17:47:18.152Z,20.60
2023-02-16T17:49:48.005Z,18.50
2023-02-16T17:52:17.985Z,18.77
2023-02-16T17:54:48.202Z,21.70
2023-02-16T17:57:18.081Z,18.07
2023-02-16T17:59:47.978Z,22.13
2023-02-16T18:02:20.552Z,17.27
2023-02-16T18:04:50.434Z,21.43
2023-02-16T18:07:21.700Z,19.17
2023-02-16T18:09:51.672Z,17.50
2023-02-16T18:12:21.593Z,18.50
2023-02-16T18:14:51.451Z,19.77
2023-02-16T18:17:24.126Z,20.70
2023-02-16T18:19:54.322Z,18.63
2023-02-16T18:22:24.059Z,20.60
2023-02-16T18:24:53.890Z,18.93
2023-02-16T18:27:23.963Z,19.70
2023-02-16T18:29:54.798Z,18.50
2023-02-16T18:32:27.297Z,19.03
2023-02-16T18:34:57.673Z,20.97
2023-02-16T18:37:27.950Z,22.97
2023-02-16T18:39:58.117Z,27.27
2023-02-16T18:42:27.929Z,21.43
2023-02-16T18:44:57.845Z,27.00
2023-02-16T18:47:30.747Z,18.67
2023-02-16T18:50:00.875Z,22.43
2023-02-16T18:52:30.800Z,22.00
2023-02-16T18:55:00.961Z,20.67
2023-02-16T18:57:30.831Z,17.47
2023-02-16T19:00:00.968Z,25.07
2023-02-16T19:02:33.746Z,22.40
2023-02-16T19:05:03.829Z,20.07
2023-02-16T19:07:33.987Z,20.60
2023-02-16T19:10:04.082Z,23.40
2023-02-16T19:12:34.352Z,20.80
2023-02-16T19:15:04.513Z,22.17
2023-02-16T19:17:38.643Z,20.77
2023-02-16T19:20:12.591Z,23.40
2023-02-16T19:22:42.395Z,20.03
2023-02-16T19:25:12.964Z,21.27
2023-02-16T19:27:42.806Z,22.67
2023-02-16T19:30:14.444Z,21.50
2023-02-16T19:32:46.900Z,22.93
2023-02-16T19:35:16.794Z,20.07
2023-02-16T19:37:46.877Z,23.67
2023-02-16T19:40:17.712Z,24.20
2023-02-16T19:42:47.631Z,22.20
2023-02-16T19:45:17.831Z,25.03
2023-02-16T19:47:52.870Z,21.73
2023-02-16T19:50:23.263Z,18.40
2023-02-16T19:52:53.082Z,22.00
2023-02-16T19:55:23.232Z,23.37
2023-02-16T19:57:53.124Z,19.67
2023-02-16T20:00:23.600Z,20.20
2023-02-16T20:02:56.082Z,20.90
2023-02-16T20:05:26.016Z,22.60
2023-02-16T20:07:55.817Z,17.47
2023-02-16T20:10:25.821Z,19.03
2023-02-16T20:12:55.568Z,18.43
2023-02-16T20:15:25.530Z,19.87
2023-02-16T20:17:58.592Z,18.80
2023-02-16T20:20:28.855Z,19.07
2023-02-16T20:23:00.218Z,22.10
2023-02-16T20:25:30.116Z,23.07
2023-02-16T20:28:00.814Z,22.77
2023-02-16T20:30:30.863Z,20.10
2023-02-16T20:33:03.420Z,19.67
2023-02-16T20:35:36.821Z,20.10
2023-02-16T20:38:06.955Z,19.47
2023-02-16T20:40:37.471Z,21.40
2023-02-16T20:43:20.985Z,19.73
2023-02-16T20:45:51.050Z,20.43
2023-02-16T20:48:23.506Z,21.77
2023-02-16T20:50:57.295Z,21.07
2023-02-16T20:53:28.238Z,23.87
2023-02-16T20:56:04.971Z,18.87
2023-02-16T20:58:35.795Z,21.87
2023-02-16T21:01:12.775Z,19.87
2023-02-16T21:03:46.105Z,16.40
2023-02-16T21:06:16.370Z,22.20
2023-02-16T21:08:46.451Z,19.10
2023-02-16T21:11:17.562Z,18.23
2023-02-16T21:13:47.965Z,20.37
2023-02-16T21:16:18.038Z,19.73
2023-02-16T21:18:50.570Z,22.37
2023-02-16T21:21:20.764Z,21.70
2023-02-16T21:23:52.663Z,21.30
2023-02-16T21:26:25.232Z,17.50
2023-02-16T21:28:55.311Z,21.90
2023-02-16T21:31:27.616Z,26.77
2023-02-16T21:34:00.197Z,20.30
2023-02-16T21:36:30.767Z,21.70
2023-02-16T21:39:01.649Z,19.60
2023-02-16T21:41:29.737Z,24.53
2023-02-16T21:44:02.312Z,19.27
2023-02-16T21:46:34.966Z,19.53
2023-02-16T21:49:05.668Z,21.23
2023-02-16T21:51:36.986Z,19.20
2023-02-16T21:54:09.210Z,21.13
2023-02-16T21:56:39.494Z,19.77
2023-02-16T21:59:11.356Z,21.67
2023-02-16T22:01:43.901Z,22.00
2023-02-16T22:04:19.418Z,22.00
2023-02-16T22:06:50.877Z,20.90
2023-02-16T22:09:22.989Z,19.20
2023-02-16T22:11:54.248Z,21.73
2023-02-16T22:14:24.069Z,22.00
2023-02-16T22:16:54.160Z,23.53
2023-02-16T22:19:26.525Z,21.97
2023-02-16T22:21:57.007Z,21.90
2023-02-16T22:24:26.811Z,22.80
2023-02-16T22:26:56.621Z,21.50
2023-02-16T22:29:26.405Z,20.47
2023-02-16T22:31:56.229Z,18.87
2023-02-16T22:34:28.641Z,22.93
2023-02-16T22:36:58.854Z,19.80
2023-02-16T22:39:31.149Z,19.13
2023-02-16T22:42:01.699Z,24.03
2023-02-16T22:44:31.566Z,21.27
2023-02-16T22:47:01.733Z,21.30
2023-02-16T22:49:34.490Z,21.40
2023-02-16T22:52:04.548Z,20.30
2023-02-16T22:54:35.004Z,19.17
2023-02-16T22:57:04.893Z,18.10
2023-02-16T22:59:34.695Z,20.87
2023-02-16T23:02:05.077Z,23.20
2023-02-16T23:04:37.535Z,20.60
2023-02-16T23:07:07.524Z,19.97
2023-02-16T23:09:37.330Z,19.50
2023-02-16T23:12:07.809Z,23.60
2023-02-16T23:14:39.710Z,20.80
2023-02-16T23:17:09.484Z,20.83
2023-02-16T23:19:41.973Z,21.10
2023-02-16T23:22:12.136Z,23.00
2023-02-16T23:24:43.477Z,23.83
2023-02-16T23:27:13.335Z,24.60
2023-02-16T23:29:43.164Z,20.30
2023-02-16T23:32:13.401Z,20.63
2023-02-16T23:34:47.114Z,20.70
2023-02-16T23:37:19.235Z,19.23
2023-02-16T23:39:49.030Z,19.00
2023-02-16T23:42:18.846Z,18.40
2023-02-16T23:44:48.608Z,26.73
2023-02-16T23:47:18.647Z,25.63
2023-02-16T23:49:51.312Z,23.30
2023-02-16T23:52:21.411Z,19.70
2023-02-16T23:54:51.684Z,22.90
2023-02-16T23:57:21.919Z,27.23
2023-02-16T23:59:54.167Z,24.93
